CSN5843 ZGSZ-ZSQD
Flight info
| Callsign | CSN5843 |
|---|---|
| Flight time | N/A |
| Altitude | 33100 |
| Route | IDUMA W41 ISLOM G471 XEBUL DCT ODOPI DCT AKAVO DCT DST W117 BEGMO W13 TOGUG/K0870S1040 W13 HSN/K0869S1010 W13 PINOT/K0872S1040 B221 IDVEL |
| Aircraft | A321/M-SDE3FGHIRWY/LB1 |
Departure
| Time | 2026-04-12 04:01 |
|---|---|
| Airport | Shenzhen Bao'an International Airport (ZGSZ) |
Arrival
| Time | N/A |
|---|---|
| Airport | Qingdao Jiaodong International Airport (ZSQD) |
| Time | Latitude | Longitude | Altitude | Speed | Heading |
|---|---|---|---|---|---|
| 2026-04-12 03:31 | 22.63156 | 113.80720 | 17 ft | 0 kts | 243° |
| 2026-04-12 03:48 | 22.63168 | 113.80747 | 15 ft | 4 kts | 243° |
| 2026-04-12 03:48 | 22.63180 | 113.80772 | 15 ft | 4 kts | 256° |
| 2026-04-12 03:49 | 22.63179 | 113.80798 | 16 ft | 4 kts | 300° |
| 2026-04-12 03:49 | 22.63169 | 113.80813 | 16 ft | 4 kts | 316° |
| 2026-04-12 03:49 | 22.63148 | 113.80830 | 16 ft | 2 kts | 333° |
| 2026-04-12 03:49 | 22.63147 | 113.80831 | 15 ft | 0 kts | 333° |
| 2026-04-12 03:52 | 22.63150 | 113.80829 | 16 ft | 1 kts | 333° |
| 2026-04-12 03:53 | 22.63160 | 113.80824 | 18 ft | 2 kts | 333° |
| 2026-04-12 03:53 | 22.63178 | 113.80814 | 17 ft | 4 kts | 333° |
| 2026-04-12 03:53 | 22.63207 | 113.80798 | 15 ft | 5 kts | 334° |
| 2026-04-12 03:53 | 22.63244 | 113.80807 | 15 ft | 6 kts | 36° |
| 2026-04-12 03:54 | 22.63271 | 113.80853 | 16 ft | 8 kts | 63° |
| 2026-04-12 03:54 | 22.63299 | 113.80914 | 15 ft | 10 kts | 63° |
| 2026-04-12 03:54 | 22.63333 | 113.80987 | 15 ft | 12 kts | 63° |
| 2026-04-12 03:54 | 22.63398 | 113.81029 | 15 ft | 12 kts | 347° |
| 2026-04-12 03:55 | 22.63480 | 113.80985 | 15 ft | 14 kts | 333° |
| 2026-04-12 03:55 | 22.63569 | 113.80936 | 15 ft | 15 kts | 333° |
| 2026-04-12 03:55 | 22.63665 | 113.80883 | 15 ft | 16 kts | 333° |
| 2026-04-12 03:55 | 22.63769 | 113.80826 | 15 ft | 17 kts | 333° |
| 2026-04-12 03:56 | 22.63881 | 113.80765 | 15 ft | 18 kts | 333° |
| 2026-04-12 03:56 | 22.63995 | 113.80702 | 16 ft | 18 kts | 333° |
| 2026-04-12 03:56 | 22.64110 | 113.80639 | 15 ft | 19 kts | 333° |
| 2026-04-12 03:56 | 22.64225 | 113.80575 | 15 ft | 19 kts | 333° |
| 2026-04-12 03:57 | 22.64341 | 113.80512 | 15 ft | 19 kts | 333° |
| 2026-04-12 03:57 | 22.64455 | 113.80449 | 15 ft | 19 kts | 333° |
| 2026-04-12 03:57 | 22.64572 | 113.80384 | 16 ft | 19 kts | 333° |
| 2026-04-12 03:57 | 22.64687 | 113.80322 | 16 ft | 19 kts | 333° |
| 2026-04-12 03:58 | 22.64804 | 113.80257 | 15 ft | 19 kts | 333° |
| 2026-04-12 03:58 | 22.64921 | 113.80193 | 15 ft | 19 kts | 333° |
| 2026-04-12 03:58 | 22.65038 | 113.80129 | 15 ft | 19 kts | 333° |
| 2026-04-12 03:58 | 22.65124 | 113.80082 | 15 ft | 11 kts | 339° |
| 2026-04-12 03:59 | 22.65182 | 113.80125 | 17 ft | 11 kts | 61° |
| 2026-04-12 03:59 | 22.65218 | 113.80201 | 15 ft | 11 kts | 64° |
| 2026-04-12 03:59 | 22.65254 | 113.80279 | 15 ft | 12 kts | 63° |
| 2026-04-12 03:59 | 22.65224 | 113.80349 | 15 ft | 11 kts | 150° |
| 2026-04-12 04:00 | 22.65180 | 113.80374 | 15 ft | 0 kts | 153° |
| 2026-04-12 04:00 | 22.65174 | 113.80377 | 15 ft | 4 kts | 153° |
| 2026-04-12 04:00 | 22.64945 | 113.80502 | 15 ft | 71 kts | 153° |
| 2026-04-12 04:00 | 22.64320 | 113.80846 | 16 ft | 129 kts | 153° |
| 2026-04-12 04:01 | 22.63377 | 113.81365 | 38 ft | 171 kts | 154° |
| 2026-04-12 04:01 | 22.62343 | 113.81944 | 790 ft | 160 kts | 155° |
| 2026-04-12 04:01 | 22.61338 | 113.82507 | 1324 ft | 170 kts | 156° |
| 2026-04-12 04:01 | 22.60217 | 113.83130 | 1459 ft | 190 kts | 156° |
| 2026-04-12 04:02 | 22.58964 | 113.83825 | 1527 ft | 216 kts | 156° |
| 2026-04-12 04:02 | 22.56138 | 113.85423 | 2583 ft | 229 kts | 155° |
| 2026-04-12 04:02 | 22.54746 | 113.86217 | 3250 ft | 230 kts | 156° |
| 2026-04-12 04:03 | 22.53343 | 113.87067 | 3835 ft | 235 kts | 147° |
| 2026-04-12 04:03 | 22.52163 | 113.88339 | 4390 ft | 245 kts | 131° |
| 2026-04-12 04:03 | 22.51346 | 113.90002 | 4888 ft | 258 kts | 112° |
| 2026-04-12 04:03 | 22.51070 | 113.91955 | 5375 ft | 270 kts | 91° |
| 2026-04-12 04:04 | 22.51393 | 113.93984 | 5918 ft | 276 kts | 79° |
| 2026-04-12 04:04 | 22.51982 | 113.95967 | 6434 ft | 281 kts | 65° |
| 2026-04-12 04:04 | 22.53101 | 113.97617 | 6897 ft | 286 kts | 40° |
| 2026-04-12 04:04 | 22.54803 | 113.98698 | 7391 ft | 285 kts | 14° |
| 2026-04-12 04:05 | 22.56732 | 113.99022 | 7929 ft | 279 kts | 353° |
| 2026-04-12 04:05 | 22.58617 | 113.98665 | 8481 ft | 273 kts | 335° |
| 2026-04-12 04:05 | 22.60356 | 113.97866 | 9052 ft | 271 kts | 332° |
| 2026-04-12 04:05 | 22.62105 | 113.97090 | 9645 ft | 272 kts | 334° |
| 2026-04-12 04:06 | 22.63900 | 113.96415 | 10166 ft | 275 kts | 338° |
| 2026-04-12 04:06 | 22.65750 | 113.95832 | 10649 ft | 278 kts | 340° |
| 2026-04-12 04:06 | 22.67649 | 113.95332 | 11095 ft | 283 kts | 342° |
| 2026-04-12 04:06 | 22.69597 | 113.94908 | 11469 ft | 292 kts | 344° |
| 2026-04-12 04:07 | 22.71634 | 113.94554 | 11583 ft | 309 kts | 347° |
| 2026-04-12 04:07 | 22.73832 | 113.94281 | 11713 ft | 327 kts | 350° |
| 2026-04-12 04:07 | 22.76165 | 113.94110 | 11838 ft | 345 kts | 353° |
| 2026-04-12 04:07 | 22.78630 | 113.94066 | 11958 ft | 363 kts | 356° |
| 2026-04-12 04:08 | 22.81209 | 113.94173 | 12083 ft | 379 kts | 0° |
| 2026-04-12 04:08 | 22.83893 | 113.94446 | 12201 ft | 395 kts | 3° |
| 2026-04-12 04:08 | 22.86673 | 113.94794 | 12317 ft | 408 kts | 4° |
| 2026-04-12 04:08 | 22.89535 | 113.95147 | 12473 ft | 419 kts | 3° |
| 2026-04-12 04:09 | 22.92446 | 113.95557 | 12858 ft | 424 kts | 5° |
| 2026-04-12 04:09 | 22.95378 | 113.96046 | 13284 ft | 428 kts | 6° |
| 2026-04-12 04:09 | 22.98322 | 113.96584 | 13717 ft | 431 kts | 6° |
| 2026-04-12 04:09 | 23.01285 | 113.97142 | 14107 ft | 434 kts | 6° |
| 2026-04-12 04:10 | 23.04266 | 113.97700 | 14519 ft | 436 kts | 6° |
| 2026-04-12 04:10 | 23.07263 | 113.98247 | 14918 ft | 438 kts | 6° |
| 2026-04-12 04:10 | 23.10283 | 113.98784 | 15301 ft | 441 kts | 5° |
| 2026-04-12 04:10 | 23.13286 | 113.99307 | 15688 ft | 444 kts | 5° |
| 2026-04-12 04:11 | 23.16342 | 113.99830 | 16054 ft | 447 kts | 5° |
| 2026-04-12 04:11 | 23.19428 | 114.00356 | 16407 ft | 450 kts | 5° |
| 2026-04-12 04:11 | 23.22530 | 114.00888 | 16755 ft | 453 kts | 5° |
| 2026-04-12 04:11 | 23.25647 | 114.01500 | 17074 ft | 459 kts | 10° |
| 2026-04-12 04:12 | 23.28698 | 114.02624 | 17410 ft | 467 kts | 20° |
| 2026-04-12 04:12 | 23.31577 | 114.04310 | 17693 ft | 474 kts | 31° |
| 2026-04-12 04:12 | 23.34225 | 114.06472 | 18006 ft | 478 kts | 36° |
| 2026-04-12 04:12 | 23.36846 | 114.08719 | 18253 ft | 481 kts | 36° |
| 2026-04-12 04:13 | 23.39485 | 114.10977 | 18525 ft | 483 kts | 36° |
| 2026-04-12 04:13 | 23.42133 | 114.13238 | 18780 ft | 485 kts | 36° |
| 2026-04-12 04:13 | 23.44798 | 114.15511 | 19054 ft | 487 kts | 36° |
| 2026-04-12 04:13 | 23.47474 | 114.17797 | 19319 ft | 489 kts | 36° |
| 2026-04-12 04:14 | 23.50152 | 114.20085 | 19582 ft | 490 kts | 36° |
| 2026-04-12 04:14 | 23.52849 | 114.22388 | 19851 ft | 492 kts | 35° |
| 2026-04-12 04:14 | 23.55547 | 114.24694 | 20109 ft | 494 kts | 36° |
| 2026-04-12 04:14 | 23.58248 | 114.27008 | 20378 ft | 495 kts | 36° |
| 2026-04-12 04:15 | 23.60959 | 114.29335 | 20636 ft | 496 kts | 36° |
| 2026-04-12 04:15 | 23.63678 | 114.31671 | 20884 ft | 498 kts | 36° |
| 2026-04-12 04:15 | 23.66407 | 114.34004 | 21123 ft | 500 kts | 35° |
| 2026-04-12 04:15 | 23.69171 | 114.36309 | 21377 ft | 501 kts | 34° |
| 2026-04-12 04:16 | 23.71964 | 114.38590 | 21625 ft | 502 kts | 34° |
| 2026-04-12 04:16 | 23.74771 | 114.40858 | 21860 ft | 503 kts | 34° |
| 2026-04-12 04:16 | 23.77590 | 114.43133 | 22107 ft | 505 kts | 34° |
| 2026-04-12 04:16 | 23.80413 | 114.45426 | 22347 ft | 506 kts | 34° |
| 2026-04-12 04:17 | 23.83235 | 114.47733 | 22590 ft | 507 kts | 34° |
| 2026-04-12 04:17 | 23.86022 | 114.50025 | 22823 ft | 509 kts | 34° |
| 2026-04-12 04:17 | 23.88851 | 114.52359 | 23025 ft | 510 kts | 34° |
| 2026-04-12 04:17 | 23.91689 | 114.54702 | 23268 ft | 511 kts | 34° |
| 2026-04-12 04:18 | 23.94526 | 114.57046 | 23482 ft | 513 kts | 34° |
| 2026-04-12 04:18 | 23.97379 | 114.59405 | 23665 ft | 514 kts | 34° |
| 2026-04-12 04:18 | 24.00231 | 114.61763 | 23841 ft | 515 kts | 34° |
| 2026-04-12 04:18 | 24.03098 | 114.64133 | 24037 ft | 516 kts | 34° |
| 2026-04-12 04:19 | 24.05968 | 114.66501 | 24219 ft | 518 kts | 34° |
| 2026-04-12 04:19 | 24.08846 | 114.68872 | 24414 ft | 519 kts | 34° |
| 2026-04-12 04:19 | 24.11734 | 114.71254 | 24608 ft | 520 kts | 34° |
| 2026-04-12 04:19 | 24.14627 | 114.73644 | 24809 ft | 522 kts | 34° |
| 2026-04-12 04:20 | 24.17524 | 114.76041 | 25005 ft | 523 kts | 34° |
| 2026-04-12 04:20 | 24.20430 | 114.78447 | 25249 ft | 523 kts | 34° |
| 2026-04-12 04:20 | 24.23327 | 114.80850 | 25527 ft | 522 kts | 34° |
| 2026-04-12 04:20 | 24.26212 | 114.83259 | 25802 ft | 522 kts | 36° |
| 2026-04-12 04:21 | 24.28885 | 114.85968 | 26072 ft | 525 kts | 45° |
| 2026-04-12 04:21 | 24.31206 | 114.89062 | 26347 ft | 526 kts | 51° |
| 2026-04-12 04:21 | 24.33432 | 114.92250 | 26605 ft | 526 kts | 51° |
| 2026-04-12 04:21 | 24.35661 | 114.95435 | 26845 ft | 526 kts | 51° |
| 2026-04-12 04:22 | 24.37892 | 114.98614 | 27123 ft | 526 kts | 50° |
| 2026-04-12 04:22 | 24.40123 | 115.01793 | 27413 ft | 525 kts | 50° |
| 2026-04-12 04:22 | 24.42352 | 115.04972 | 27703 ft | 525 kts | 50° |
| 2026-04-12 04:22 | 24.44574 | 115.08144 | 27990 ft | 524 kts | 50° |
| 2026-04-12 04:23 | 24.46795 | 115.11316 | 28278 ft | 524 kts | 50° |
| 2026-04-12 04:23 | 24.48985 | 115.14448 | 28562 ft | 524 kts | 50° |
| 2026-04-12 04:23 | 24.51197 | 115.17621 | 28854 ft | 523 kts | 51° |
| 2026-04-12 04:23 | 24.53406 | 115.20794 | 29139 ft | 522 kts | 51° |
| 2026-04-12 04:24 | 24.55616 | 115.23965 | 29410 ft | 522 kts | 50° |
| 2026-04-12 04:24 | 24.57822 | 115.27128 | 29704 ft | 522 kts | 50° |
| 2026-04-12 04:24 | 24.60030 | 115.30291 | 29970 ft | 521 kts | 50° |
| 2026-04-12 04:24 | 24.62236 | 115.33452 | 30213 ft | 521 kts | 50° |
| 2026-04-12 04:25 | 24.64433 | 115.36605 | 30463 ft | 520 kts | 50° |
| 2026-04-12 04:25 | 24.66631 | 115.39764 | 30727 ft | 519 kts | 50° |
| 2026-04-12 04:25 | 24.68805 | 115.42929 | 30992 ft | 518 kts | 51° |
| 2026-04-12 04:25 | 24.70932 | 115.46128 | 31227 ft | 518 kts | 52° |
| 2026-04-12 04:26 | 24.73017 | 115.49354 | 31454 ft | 517 kts | 53° |
| 2026-04-12 04:26 | 24.75079 | 115.52595 | 31703 ft | 517 kts | 53° |
| 2026-04-12 04:26 | 24.77135 | 115.55833 | 31960 ft | 516 kts | 53° |
| 2026-04-12 04:26 | 24.79169 | 115.59013 | 32196 ft | 515 kts | 53° |
| 2026-04-12 04:27 | 24.81239 | 115.62224 | 32439 ft | 514 kts | 52° |
| 2026-04-12 04:27 | 24.83317 | 115.65423 | 32682 ft | 513 kts | 52° |
| 2026-04-12 04:27 | 24.85393 | 115.68610 | 32915 ft | 512 kts | 52° |
| 2026-04-12 04:28 | 24.89557 | 115.75008 | 33009 ft | 515 kts | 52° |
| 2026-04-12 04:28 | 24.93727 | 115.81439 | 33012 ft | 516 kts | 52° |
| 2026-04-12 04:29 | 24.97886 | 115.87889 | 33012 ft | 516 kts | 52° |
| 2026-04-12 04:29 | 25.02011 | 115.94296 | 33011 ft | 516 kts | 52° |
| 2026-04-12 04:30 | 25.06156 | 116.00750 | 33011 ft | 515 kts | 52° |
| 2026-04-12 04:30 | 25.10305 | 116.07193 | 33010 ft | 515 kts | 52° |
| 2026-04-12 04:31 | 25.14461 | 116.13642 | 33016 ft | 516 kts | 52° |
| 2026-04-12 04:31 | 25.18607 | 116.20111 | 33014 ft | 515 kts | 52° |
| 2026-04-12 04:32 | 25.22748 | 116.26583 | 33021 ft | 516 kts | 52° |
| 2026-04-12 04:32 | 25.26885 | 116.33067 | 33018 ft | 516 kts | 52° |
| 2026-04-12 04:33 | 25.31033 | 116.39551 | 33021 ft | 517 kts | 52° |
| 2026-04-12 04:33 | 25.35184 | 116.46050 | 33017 ft | 517 kts | 52° |
| 2026-04-12 04:34 | 25.39303 | 116.52508 | 33025 ft | 517 kts | 52° |
| 2026-04-12 04:34 | 25.43450 | 116.59015 | 33023 ft | 518 kts | 52° |
| 2026-04-12 04:35 | 25.47588 | 116.65543 | 33026 ft | 518 kts | 52° |
| 2026-04-12 04:35 | 25.51720 | 116.72067 | 33028 ft | 518 kts | 52° |
| 2026-04-12 04:36 | 25.55866 | 116.78608 | 33026 ft | 518 kts | 52° |
| 2026-04-12 04:36 | 25.60002 | 116.85147 | 33029 ft | 518 kts | 52° |
| 2026-04-12 04:37 | 25.64140 | 116.91682 | 33024 ft | 518 kts | 52° |
| 2026-04-12 04:37 | 25.68270 | 116.98231 | 33023 ft | 518 kts | 52° |
| 2026-04-12 04:38 | 25.72392 | 117.04789 | 33017 ft | 519 kts | 52° |
| 2026-04-12 04:38 | 25.76497 | 117.11312 | 33013 ft | 519 kts | 52° |
| 2026-04-12 04:39 | 25.80620 | 117.17883 | 33009 ft | 519 kts | 52° |
| 2026-04-12 04:39 | 25.84744 | 117.24457 | 33004 ft | 519 kts | 52° |
| 2026-04-12 04:40 | 25.88867 | 117.31039 | 32998 ft | 518 kts | 52° |
| 2026-04-12 04:40 | 25.92984 | 117.37622 | 33000 ft | 519 kts | 52° |
| 2026-04-12 04:41 | 25.97106 | 117.44211 | 32995 ft | 519 kts | 52° |
| 2026-04-12 04:41 | 26.01222 | 117.50803 | 33000 ft | 519 kts | 52° |
| 2026-04-12 04:42 | 26.05335 | 117.57399 | 32993 ft | 519 kts | 52° |
| 2026-04-12 04:42 | 26.08745 | 117.62890 | 33002 ft | 520 kts | 52° |
| 2026-04-12 04:43 | 26.15572 | 117.73900 | 32980 ft | 520 kts | 52° |
| 2026-04-12 04:43 | 26.19684 | 117.80529 | 33006 ft | 521 kts | 52° |
| 2026-04-12 04:44 | 26.23102 | 117.86041 | 32993 ft | 520 kts | 52° |
| 2026-04-12 04:44 | 26.27210 | 117.92672 | 32984 ft | 520 kts | 52° |
| 2026-04-12 04:45 | 26.31303 | 117.99321 | 32978 ft | 520 kts | 52° |
| 2026-04-12 04:45 | 26.35389 | 118.05974 | 32986 ft | 520 kts | 52° |
| 2026-04-12 04:46 | 26.39486 | 118.12626 | 32997 ft | 520 kts | 52° |
| 2026-04-12 04:46 | 26.43583 | 118.19277 | 32989 ft | 520 kts | 52° |
| 2026-04-12 04:47 | 26.47675 | 118.25935 | 32981 ft | 520 kts | 52° |
| 2026-04-12 04:47 | 26.51757 | 118.32602 | 32984 ft | 520 kts | 52° |
| 2026-04-12 04:48 | 26.55841 | 118.39277 | 33002 ft | 521 kts | 52° |
| 2026-04-12 04:48 | 26.59922 | 118.45957 | 32996 ft | 520 kts | 53° |
| 2026-04-12 04:49 | 26.63999 | 118.52644 | 32997 ft | 521 kts | 52° |
| 2026-04-12 04:49 | 26.68076 | 118.59336 | 33011 ft | 521 kts | 52° |
| 2026-04-12 04:50 | 26.72153 | 118.66036 | 33010 ft | 521 kts | 53° |
| 2026-04-12 04:50 | 26.76228 | 118.72745 | 33016 ft | 521 kts | 53° |
| 2026-04-12 04:51 | 26.80298 | 118.79469 | 33020 ft | 521 kts | 52° |
| 2026-04-12 04:51 | 26.84364 | 118.86191 | 33019 ft | 522 kts | 52° |
| 2026-04-12 04:52 | 26.88438 | 118.92923 | 33023 ft | 522 kts | 52° |
| 2026-04-12 04:52 | 26.92486 | 118.99614 | 33022 ft | 522 kts | 52° |
| 2026-04-12 04:53 | 26.96552 | 119.06349 | 33016 ft | 522 kts | 52° |
| 2026-04-12 04:54 | 27.02640 | 119.16478 | 33018 ft | 522 kts | 52° |
| 2026-04-12 04:54 | 27.06701 | 119.23244 | 33011 ft | 522 kts | 52° |
| 2026-04-12 04:55 | 27.10757 | 119.30009 | 33005 ft | 522 kts | 52° |
| 2026-04-12 04:55 | 27.14806 | 119.36781 | 33009 ft | 522 kts | 53° |
| 2026-04-12 04:56 | 27.18851 | 119.43563 | 33009 ft | 523 kts | 53° |
| 2026-04-12 04:56 | 27.22904 | 119.50354 | 33008 ft | 523 kts | 52° |
| 2026-04-12 04:57 | 27.26813 | 119.57270 | 33008 ft | 527 kts | 60° |
| 2026-04-12 04:57 | 27.30164 | 119.64547 | 33006 ft | 528 kts | 60° |
| 2026-04-12 04:58 | 27.33561 | 119.71924 | 33002 ft | 528 kts | 60° |
| 2026-04-12 04:58 | 27.36907 | 119.79197 | 33002 ft | 527 kts | 59° |
| 2026-04-12 04:59 | 27.40274 | 119.86524 | 33004 ft | 527 kts | 59° |
| 2026-04-12 04:59 | 27.43630 | 119.93868 | 33001 ft | 527 kts | 60° |
| 2026-04-12 05:00 | 27.46986 | 120.01211 | 33005 ft | 527 kts | 59° |
| 2026-04-12 05:00 | 27.50345 | 120.08558 | 33006 ft | 528 kts | 59° |
| 2026-04-12 05:01 | 27.53694 | 120.15917 | 33005 ft | 528 kts | 60° |
| 2026-04-12 05:01 | 27.57038 | 120.23276 | 33009 ft | 528 kts | 60° |
| 2026-04-12 05:02 | 27.60392 | 120.30646 | 33007 ft | 529 kts | 59° |
| 2026-04-12 05:02 | 27.63735 | 120.38028 | 33004 ft | 529 kts | 60° |
| 2026-04-12 05:03 | 27.67079 | 120.45427 | 33010 ft | 529 kts | 60° |
| 2026-04-12 05:03 | 27.70418 | 120.52830 | 33012 ft | 529 kts | 60° |
| 2026-04-12 05:04 | 27.73737 | 120.60183 | 33006 ft | 529 kts | 61° |
| 2026-04-12 05:04 | 27.76082 | 120.68087 | 33001 ft | 534 kts | 75° |
| 2026-04-12 05:05 | 27.77789 | 120.76256 | 33004 ft | 535 kts | 75° |
| 2026-04-12 05:05 | 27.79519 | 120.84435 | 32997 ft | 535 kts | 75° |
| 2026-04-12 05:06 | 27.81249 | 120.92613 | 32997 ft | 536 kts | 75° |
| 2026-04-12 05:06 | 27.82962 | 121.00803 | 32995 ft | 536 kts | 75° |
| 2026-04-12 05:07 | 27.84669 | 121.09009 | 33001 ft | 537 kts | 75° |
| 2026-04-12 05:07 | 27.86377 | 121.17221 | 32994 ft | 537 kts | 75° |
| 2026-04-12 05:08 | 27.88074 | 121.25384 | 33000 ft | 537 kts | 75° |
| 2026-04-12 05:08 | 27.89783 | 121.33601 | 33004 ft | 537 kts | 75° |
| 2026-04-12 05:09 | 27.91488 | 121.41829 | 32999 ft | 537 kts | 75° |
| 2026-04-12 05:09 | 27.93190 | 121.50053 | 33008 ft | 537 kts | 75° |
| 2026-04-12 05:10 | 27.94880 | 121.58276 | 33012 ft | 537 kts | 75° |
| 2026-04-12 05:10 | 27.96564 | 121.66509 | 33015 ft | 537 kts | 75° |
| 2026-04-12 05:11 | 27.98429 | 121.74670 | 33005 ft | 534 kts | 66° |
| 2026-04-12 05:11 | 28.02031 | 121.81877 | 33009 ft | 522 kts | 45° |
| 2026-04-12 05:12 | 28.07271 | 121.87324 | 33002 ft | 505 kts | 26° |
| 2026-04-12 05:12 | 28.13384 | 121.91063 | 32999 ft | 499 kts | 20° |
| 2026-04-12 05:13 | 28.19573 | 121.94622 | 33002 ft | 499 kts | 20° |
| 2026-04-12 05:13 | 28.25770 | 121.98203 | 33008 ft | 500 kts | 20° |
| 2026-04-12 05:14 | 28.31920 | 122.01781 | 33013 ft | 500 kts | 20° |
| 2026-04-12 05:14 | 28.38119 | 122.05380 | 33007 ft | 500 kts | 20° |
| 2026-04-12 05:15 | 28.44320 | 122.08981 | 33006 ft | 500 kts | 20° |
| 2026-04-12 05:15 | 28.50521 | 122.12580 | 33006 ft | 501 kts | 20° |
| 2026-04-12 05:16 | 28.56728 | 122.16192 | 33004 ft | 501 kts | 20° |
| 2026-04-12 05:16 | 28.62927 | 122.19814 | 33004 ft | 501 kts | 20° |
| 2026-04-12 05:17 | 28.69129 | 122.23437 | 33008 ft | 501 kts | 20° |
| 2026-04-12 05:17 | 28.75331 | 122.27064 | 33009 ft | 501 kts | 20° |
| 2026-04-12 05:18 | 28.81492 | 122.30664 | 33010 ft | 500 kts | 19° |
| 2026-04-12 05:18 | 28.87686 | 122.34288 | 33011 ft | 500 kts | 19° |
| 2026-04-12 05:19 | 28.93871 | 122.37929 | 33007 ft | 500 kts | 19° |
| 2026-04-12 05:19 | 29.00065 | 122.41576 | 33007 ft | 500 kts | 19° |
| 2026-04-12 05:20 | 29.06250 | 122.45214 | 33000 ft | 500 kts | 19° |
| 2026-04-12 05:20 | 29.12437 | 122.48862 | 32997 ft | 500 kts | 19° |
| 2026-04-12 05:21 | 29.18812 | 122.51632 | 32993 ft | 479 kts | 2° |
| 2026-04-12 05:21 | 29.22074 | 122.52111 | 32991 ft | 467 kts | 353° |
| 2026-04-12 05:21 | 29.25284 | 122.52014 | 32991 ft | 456 kts | 344° |
| 2026-04-12 05:22 | 29.31430 | 122.50692 | 32982 ft | 449 kts | 339° |
| 2026-04-12 05:22 | 29.37559 | 122.49270 | 32942 ft | 451 kts | 339° |
| 2026-04-12 05:23 | 29.43701 | 122.47852 | 32945 ft | 455 kts | 339° |
| 2026-04-12 05:23 | 29.49923 | 122.46410 | 32952 ft | 457 kts | 339° |
| 2026-04-12 05:24 | 29.56159 | 122.44964 | 32957 ft | 458 kts | 339° |
| 2026-04-12 05:24 | 29.62418 | 122.43510 | 32969 ft | 459 kts | 339° |
| 2026-04-12 05:25 | 29.68684 | 122.42050 | 32974 ft | 459 kts | 339° |
| 2026-04-12 05:25 | 29.74947 | 122.40590 | 32980 ft | 459 kts | 339° |
| 2026-04-12 05:26 | 29.81214 | 122.39133 | 32989 ft | 459 kts | 339° |
| 2026-04-12 05:26 | 29.87487 | 122.37665 | 32987 ft | 460 kts | 339° |
| 2026-04-12 05:27 | 29.93794 | 122.36472 | 32989 ft | 471 kts | 349° |
| 2026-04-12 05:27 | 30.00428 | 122.36787 | 32992 ft | 479 kts | 354° |
| 2026-04-12 05:28 | 30.07084 | 122.37211 | 32991 ft | 479 kts | 353° |
| 2026-04-12 05:28 | 30.13747 | 122.37631 | 32993 ft | 479 kts | 353° |
| 2026-04-12 05:29 | 30.20408 | 122.38045 | 32994 ft | 479 kts | 353° |
| 2026-04-12 05:29 | 30.27076 | 122.38464 | 32989 ft | 479 kts | 353° |
| 2026-04-12 05:30 | 30.33735 | 122.38830 | 32996 ft | 479 kts | 353° |
| 2026-04-12 05:30 | 30.40343 | 122.39153 | 32995 ft | 478 kts | 353° |
| 2026-04-12 05:31 | 30.46995 | 122.39494 | 32995 ft | 479 kts | 353° |
| 2026-04-12 05:31 | 30.53649 | 122.39845 | 33002 ft | 478 kts | 353° |
| 2026-04-12 05:32 | 30.60299 | 122.40188 | 33008 ft | 478 kts | 353° |
| 2026-04-12 05:32 | 30.66955 | 122.40558 | 33008 ft | 479 kts | 353° |
| 2026-04-12 05:33 | 30.73604 | 122.40944 | 33011 ft | 479 kts | 353° |
| 2026-04-12 05:33 | 30.80258 | 122.41328 | 33013 ft | 478 kts | 353° |
| 2026-04-12 05:34 | 30.86906 | 122.41703 | 33012 ft | 478 kts | 353° |
| 2026-04-12 05:34 | 30.93554 | 122.42082 | 33017 ft | 478 kts | 353° |
| 2026-04-12 05:35 | 30.99079 | 122.42393 | 33020 ft | 478 kts | 352° |
| 2026-04-12 05:35 | 31.06804 | 122.42832 | 33022 ft | 478 kts | 352° |
| 2026-04-12 05:36 | 31.13454 | 122.43212 | 33022 ft | 478 kts | 352° |
| 2026-04-12 05:36 | 31.19024 | 122.43521 | 33026 ft | 478 kts | 352° |
| 2026-04-12 05:37 | 31.25627 | 122.43881 | 33029 ft | 479 kts | 352° |
| 2026-04-12 05:37 | 31.32284 | 122.44252 | 33026 ft | 479 kts | 352° |
| 2026-04-12 05:38 | 31.38955 | 122.44639 | 33027 ft | 480 kts | 352° |
| 2026-04-12 05:38 | 31.45515 | 122.44368 | 33016 ft | 460 kts | 338° |
| 2026-04-12 05:38 | 31.48560 | 122.43410 | 33022 ft | 447 kts | 329° |
| 2026-04-12 05:39 | 31.51448 | 122.42096 | 33016 ft | 445 kts | 328° |
| 2026-04-12 05:39 | 31.57228 | 122.39457 | 33027 ft | 446 kts | 328° |
| 2026-04-12 05:40 | 31.63018 | 122.36831 | 33041 ft | 446 kts | 328° |
| 2026-04-12 05:40 | 31.68805 | 122.34203 | 33051 ft | 446 kts | 328° |
| 2026-04-12 05:41 | 31.74581 | 122.31555 | 33057 ft | 445 kts | 327° |
| 2026-04-12 05:41 | 31.80286 | 122.28799 | 33057 ft | 441 kts | 325° |
| 2026-04-12 05:42 | 31.85886 | 122.25944 | 33052 ft | 443 kts | 326° |
| 2026-04-12 05:42 | 31.91650 | 122.23290 | 33058 ft | 446 kts | 328° |
| 2026-04-12 05:43 | 32.00374 | 122.19456 | 33059 ft | 446 kts | 327° |
| 2026-04-12 05:43 | 32.06166 | 122.16848 | 33060 ft | 445 kts | 327° |
| 2026-04-12 05:44 | 32.11949 | 122.14213 | 33064 ft | 446 kts | 327° |
| 2026-04-12 05:44 | 32.17741 | 122.11573 | 33068 ft | 446 kts | 327° |
| 2026-04-12 05:45 | 32.23536 | 122.08936 | 33070 ft | 446 kts | 327° |
| 2026-04-12 05:45 | 32.29334 | 122.06297 | 33073 ft | 446 kts | 327° |
| 2026-04-12 05:46 | 32.35091 | 122.03677 | 33080 ft | 446 kts | 326° |
| 2026-04-12 05:46 | 32.40879 | 122.01030 | 33082 ft | 446 kts | 326° |
| 2026-04-12 05:47 | 32.46668 | 121.98378 | 33083 ft | 446 kts | 326° |
| 2026-04-12 05:47 | 32.52452 | 121.95726 | 33082 ft | 446 kts | 326° |
| 2026-04-12 05:48 | 32.58235 | 121.93072 | 33077 ft | 446 kts | 326° |
| 2026-04-12 05:48 | 32.64015 | 121.90424 | 33087 ft | 445 kts | 326° |
| 2026-04-12 05:49 | 32.69789 | 121.87769 | 33087 ft | 445 kts | 326° |
| 2026-04-12 05:49 | 32.75558 | 121.85102 | 33097 ft | 445 kts | 326° |
| 2026-04-12 05:50 | 32.81332 | 121.82443 | 33094 ft | 445 kts | 326° |
| 2026-04-12 05:50 | 32.87103 | 121.79785 | 33101 ft | 445 kts | 326° |
| 2026-04-12 05:51 | 32.92870 | 121.77117 | 33103 ft | 445 kts | 326° |
| 2026-04-12 05:51 | 32.98607 | 121.74455 | 33100 ft | 445 kts | 326° |
| 2026-04-12 05:52 | 33.04374 | 121.71775 | 33101 ft | 445 kts | 326° |
| 2026-04-12 05:52 | 33.10152 | 121.69093 | 33103 ft | 445 kts | 326° |
| 2026-04-12 05:53 | 33.15927 | 121.66411 | 33109 ft | 446 kts | 326° |
| 2026-04-12 05:53 | 33.21710 | 121.63717 | 33111 ft | 446 kts | 326° |
| 2026-04-12 05:54 | 33.27472 | 121.60999 | 33100 ft | 444 kts | 324° |
| 2026-04-12 05:54 | 33.33131 | 121.58115 | 33108 ft | 441 kts | 323° |
| 2026-04-12 05:55 | 33.38745 | 121.55155 | 33113 ft | 441 kts | 323° |
| 2026-04-12 05:55 | 33.44378 | 121.52217 | 33114 ft | 442 kts | 323° |
| 2026-04-12 05:56 | 33.50031 | 121.49309 | 33116 ft | 442 kts | 324° |
| 2026-04-12 05:56 | 33.55688 | 121.46410 | 33119 ft | 442 kts | 324° |
| 2026-04-12 05:57 | 33.61334 | 121.43493 | 33119 ft | 442 kts | 323° |
| 2026-04-12 05:57 | 33.66024 | 121.41058 | 33122 ft | 442 kts | 324° |
| 2026-04-12 05:58 | 33.72687 | 121.37755 | 33124 ft | 445 kts | 326° |
| 2026-04-12 05:58 | 33.78441 | 121.35105 | 33126 ft | 446 kts | 326° |
| 2026-04-12 05:59 | 33.84231 | 121.32425 | 33128 ft | 445 kts | 326° |
| 2026-04-12 05:59 | 33.89989 | 121.29704 | 33129 ft | 444 kts | 326° |
| 2026-04-12 06:00 | 33.95735 | 121.26962 | 33126 ft | 444 kts | 326° |
| 2026-04-12 06:00 | 34.01483 | 121.24225 | 33132 ft | 444 kts | 326° |
| 2026-04-12 06:01 | 34.07234 | 121.21486 | 33132 ft | 444 kts | 326° |
| 2026-04-12 06:01 | 34.12988 | 121.18748 | 33133 ft | 444 kts | 326° |
| 2026-04-12 06:02 | 34.18733 | 121.16006 | 33129 ft | 444 kts | 326° |
| 2026-04-12 06:02 | 34.22542 | 121.14183 | 33140 ft | 444 kts | 326° |